createdAt,value
2017-07-21T00:00:48.259Z,0
2017-07-21T00:08:07.338Z,0
2017-07-21T00:09:08.057Z,0
2017-07-21T00:10:08.778Z,0
2017-07-21T00:11:09.500Z,0
2017-07-21T00:12:10.241Z,0
2017-07-21T00:13:10.961Z,0
2017-07-21T00:14:11.683Z,0
2017-07-21T00:15:12.407Z,0
2017-07-21T00:16:13.149Z,0
2017-07-21T00:17:13.871Z,0
2017-07-21T00:18:14.589Z,0
2017-07-21T00:19:15.310Z,0
2017-07-21T00:20:16.031Z,0
2017-07-21T00:21:16.754Z,0
2017-07-21T00:22:17.478Z,0
2017-07-21T00:23:18.223Z,0
2017-07-21T00:24:18.944Z,0
2017-07-21T00:25:19.669Z,0
2017-07-21T00:26:20.391Z,0
2017-07-21T00:27:21.110Z,0
2017-07-21T00:28:21.831Z,0
2017-07-21T00:29:22.554Z,0
2017-07-21T00:30:23.274Z,0
2017-07-21T00:31:24.000Z,0
2017-07-21T00:32:24.723Z,0
2017-07-21T00:33:25.440Z,0
2017-07-21T00:34:26.163Z,0
2017-07-21T00:35:26.882Z,0
2017-07-21T00:36:27.657Z,0
2017-07-21T00:37:28.353Z,0
2017-07-21T00:38:29.071Z,0
2017-07-21T00:39:29.815Z,0
2017-07-21T00:40:30.534Z,0
2017-07-21T00:41:31.279Z,0
2017-07-21T00:42:32.003Z,0
2017-07-21T00:43:32.723Z,0
2017-07-21T00:44:33.444Z,0
2017-07-21T00:45:34.169Z,0
2017-07-21T00:46:34.916Z,0
2017-07-21T00:47:35.634Z,0
2017-07-21T00:48:36.374Z,0
2017-07-21T00:49:37.119Z,0
2017-07-21T00:50:37.844Z,0
2017-07-21T00:51:38.561Z,0
2017-07-21T00:52:39.285Z,0
2017-07-21T00:53:40.007Z,0
2017-07-21T00:54:40.728Z,0
2017-07-21T00:55:41.451Z,0
2017-07-21T00:56:42.172Z,0
2017-07-21T00:57:42.894Z,0
2017-07-21T00:58:43.619Z,0
2017-07-21T00:59:44.344Z,0
2017-07-21T01:01:45.712Z,0
2017-07-21T01:02:46.437Z,0
2017-07-21T01:03:47.157Z,0
2017-07-21T01:04:47.882Z,0
2017-07-21T01:05:48.604Z,0
2017-07-21T01:06:49.321Z,0
2017-07-21T01:07:50.067Z,0
2017-07-21T01:08:50.785Z,0
2017-07-21T01:09:51.530Z,0
2017-07-21T01:10:52.276Z,0
2017-07-21T01:11:53.020Z,0
2017-07-21T01:12:53.745Z,0
2017-07-21T01:13:54.468Z,0
2017-07-21T01:14:55.191Z,0
2017-07-21T01:15:55.911Z,0
2017-07-21T01:16:56.629Z,0
2017-07-21T01:17:57.350Z,0
2017-07-21T01:18:58.074Z,0
2017-07-21T01:19:58.800Z,0
2017-07-21T01:20:59.543Z,0
2017-07-21T01:22:00.287Z,0
2017-07-21T01:23:01.010Z,0
2017-07-21T01:24:01.730Z,0
2017-07-21T01:25:02.477Z,0
2017-07-21T01:26:03.198Z,0
2017-07-21T01:27:03.941Z,0
2017-07-21T01:28:04.664Z,0
2017-07-21T01:29:05.381Z,0
2017-07-21T01:30:06.102Z,0
2017-07-21T01:31:06.825Z,0
2017-07-21T01:32:07.582Z,0
2017-07-21T01:33:08.315Z,0
2017-07-21T01:34:09.036Z,0
2017-07-21T01:35:09.756Z,0
2017-07-21T01:36:10.501Z,0
2017-07-21T01:37:11.224Z,0
2017-07-21T01:38:11.965Z,0
2017-07-21T01:39:12.686Z,0
2017-07-21T01:40:13.411Z,0
2017-07-21T01:41:14.158Z,0
2017-07-21T01:42:14.878Z,0
2017-07-21T01:43:15.602Z,0
2017-07-21T01:44:16.318Z,0
2017-07-21T01:45:17.040Z,0
2017-07-21T01:46:17.762Z,0
2017-07-21T01:47:18.486Z,0
2017-07-21T01:48:19.207Z,0
2017-07-21T01:49:19.930Z,0
2017-07-21T01:50:20.650Z,0
2017-07-21T01:51:21.394Z,0
2017-07-21T01:52:22.141Z,0
2017-07-21T01:53:22.857Z,0
2017-07-21T01:54:23.582Z,0
2017-07-21T01:55:24.303Z,0
2017-07-21T01:56:25.026Z,0
2017-07-21T01:57:25.749Z,0
2017-07-21T01:58:26.469Z,0
2017-07-21T01:59:27.190Z,0
2017-07-21T02:00:27.912Z,0
2017-07-21T02:01:28.634Z,0
2017-07-21T02:02:29.358Z,0
2017-07-21T02:03:30.101Z,0
2017-07-21T02:04:30.825Z,0
2017-07-21T02:05:31.544Z,0
2017-07-21T02:06:32.265Z,0
2017-07-21T02:07:33.009Z,0
2017-07-21T02:08:33.753Z,0
2017-07-21T02:09:34.470Z,0
2017-07-21T02:10:35.195Z,0
2017-07-21T02:11:35.919Z,0
2017-07-21T02:12:36.642Z,0
2017-07-21T02:13:37.361Z,0
2017-07-21T02:14:38.083Z,0
2017-07-21T02:15:38.806Z,0
2017-07-21T02:16:39.530Z,0
2017-07-21T02:17:40.275Z,0
2017-07-21T02:18:40.997Z,0
2017-07-21T02:19:41.742Z,0
2017-07-21T02:20:42.464Z,0
2017-07-21T02:21:43.185Z,0
2017-07-21T02:22:43.907Z,0
2017-07-21T02:23:44.626Z,0
2017-07-21T02:24:45.349Z,0
2017-07-21T02:25:46.090Z,0
2017-07-21T02:26:46.835Z,0
2017-07-21T02:27:47.554Z,0
2017-07-21T02:28:48.302Z,0
2017-07-21T02:29:49.019Z,0
2017-07-21T02:30:49.744Z,0
2017-07-21T02:31:50.468Z,0
2017-07-21T02:32:51.195Z,0
2017-07-21T02:33:51.916Z,0
2017-07-21T02:34:52.634Z,0
2017-07-21T02:35:53.360Z,0
2017-07-21T02:36:54.107Z,0
2017-07-21T02:37:54.829Z,0
2017-07-21T02:38:55.572Z,0
2017-07-21T02:39:56.295Z,0
2017-07-21T02:40:57.012Z,0
2017-07-21T02:41:57.738Z,0
2017-07-21T02:42:58.459Z,0
2017-07-21T02:43:59.195Z,0
2017-07-21T02:44:59.907Z,0
2017-07-21T02:46:00.623Z,0
2017-07-21T02:47:01.347Z,0
2017-07-21T02:48:02.071Z,0
2017-07-21T02:49:02.819Z,0
2017-07-21T02:50:03.538Z,0
2017-07-21T02:51:04.285Z,0
2017-07-21T02:52:05.009Z,0
2017-07-21T02:53:05.728Z,0
2017-07-21T02:54:06.451Z,0
2017-07-21T02:55:07.174Z,0
2017-07-21T02:56:07.893Z,0
2017-07-21T02:57:08.620Z,0
2017-07-21T02:58:09.338Z,0
2017-07-21T02:59:10.063Z,4
2017-07-21T03:00:10.806Z,4
2017-07-21T03:01:11.529Z,0
2017-07-21T03:02:12.250Z,4
2017-07-21T03:03:12.975Z,4
2017-07-21T03:04:13.697Z,4
2017-07-21T03:05:14.416Z,4
2017-07-21T03:06:15.141Z,8
2017-07-21T03:07:15.859Z,4
2017-07-21T03:08:16.580Z,8
2017-07-21T03:09:17.324Z,8
2017-07-21T03:10:18.048Z,8
2017-07-21T03:11:18.772Z,12
2017-07-21T03:12:19.515Z,12
2017-07-21T03:13:20.240Z,12
2017-07-21T03:14:20.957Z,16
2017-07-21T03:15:21.681Z,20
2017-07-21T03:16:22.403Z,20
2017-07-21T03:17:23.122Z,24
2017-07-21T03:18:23.847Z,28
2017-07-21T03:19:24.567Z,32
2017-07-21T03:20:25.290Z,36
2017-07-21T03:21:26.016Z,40
2017-07-21T03:22:26.733Z,44
2017-07-21T03:23:27.457Z,52
2017-07-21T03:24:28.180Z,60
2017-07-21T03:25:28.901Z,64
2017-07-21T03:26:29.622Z,68
2017-07-21T03:27:30.341Z,80
2017-07-21T03:28:31.063Z,88
2017-07-21T03:29:31.787Z,100
2017-07-21T03:30:32.510Z,108
2017-07-21T03:31:33.235Z,120
2017-07-21T03:32:33.962Z,128
2017-07-21T03:33:34.685Z,144
2017-07-21T03:34:35.432Z,156
2017-07-21T03:35:36.155Z,172
2017-07-21T03:36:36.878Z,184
2017-07-21T03:37:37.623Z,200
2017-07-21T03:38:38.367Z,216
2017-07-21T03:39:39.096Z,236
2017-07-21T03:40:39.819Z,252
2017-07-21T03:41:40.546Z,276
2017-07-21T03:42:41.267Z,296
2017-07-21T03:43:41.994Z,316
2017-07-21T03:44:42.719Z,336
2017-07-21T03:45:43.441Z,364
2017-07-21T03:46:44.168Z,384
2017-07-21T03:47:44.892Z,408
2017-07-21T03:48:45.617Z,432
2017-07-21T03:49:46.362Z,456
2017-07-21T03:50:47.086Z,480
2017-07-21T03:51:47.813Z,504
2017-07-21T03:52:48.559Z,528
2017-07-21T03:53:49.281Z,556
2017-07-21T03:54:50.011Z,584
2017-07-21T03:55:50.732Z,612
2017-07-21T03:56:51.457Z,644
2017-07-21T03:57:52.185Z,672
2017-07-21T03:58:52.907Z,712
2017-07-21T03:59:53.634Z,752
2017-07-21T04:00:54.357Z,796
2017-07-21T04:01:55.086Z,848
2017-07-21T04:02:55.811Z,904
2017-07-21T04:03:56.534Z,960
2017-07-21T04:04:57.257Z,1016
2017-07-21T04:05:57.984Z,1076
2017-07-21T04:06:58.732Z,1128
2017-07-21T04:07:59.460Z,1172
2017-07-21T04:09:00.188Z,1204
2017-07-21T04:10:00.909Z,1228
2017-07-21T04:11:01.639Z,1248
2017-07-21T04:12:02.389Z,1260
2017-07-21T04:13:03.112Z,1268
2017-07-21T04:14:03.861Z,1268
2017-07-21T04:15:04.612Z,1276
2017-07-21T04:16:05.340Z,1280
2017-07-21T04:17:06.064Z,1284
2017-07-21T04:18:06.789Z,1288
2017-07-21T04:19:07.516Z,1288
2017-07-21T04:20:08.245Z,1288
2017-07-21T04:21:08.972Z,1292
2017-07-21T04:22:09.698Z,1288
2017-07-21T04:23:10.423Z,1288
2017-07-21T04:24:11.149Z,1292
2017-07-21T04:25:11.874Z,1292
2017-07-21T04:26:12.600Z,1292
2017-07-21T04:27:13.329Z,1304
2017-07-21T04:28:14.053Z,1320
2017-07-21T04:29:14.780Z,1332
2017-07-21T04:30:15.529Z,1356
2017-07-21T04:31:16.278Z,1372
2017-07-21T04:32:17.007Z,1400
2017-07-21T04:33:17.736Z,1428
2017-07-21T04:34:18.489Z,1436
2017-07-21T04:35:19.208Z,1444
2017-07-21T04:36:19.931Z,1464
2017-07-21T04:37:20.679Z,1488
2017-07-21T04:38:21.426Z,1532
2017-07-21T04:39:22.149Z,1584
2017-07-21T04:40:22.881Z,1640
2017-07-21T04:41:23.608Z,1672
2017-07-21T04:42:24.328Z,1700
2017-07-21T04:43:25.055Z,1724
2017-07-21T04:44:25.784Z,1752
2017-07-21T04:45:26.534Z,1772
2017-07-21T04:46:27.260Z,1792
2017-07-21T04:47:27.989Z,1816
2017-07-21T04:48:28.717Z,1848
2017-07-21T04:49:29.444Z,1888
2017-07-21T04:50:30.169Z,1928
2017-07-21T04:51:30.892Z,1956
2017-07-21T04:52:31.622Z,1980
2017-07-21T04:53:32.346Z,2000
2017-07-21T04:54:33.071Z,2032
2017-07-21T04:55:33.797Z,2040
2017-07-21T04:56:34.521Z,2040
2017-07-21T04:57:35.249Z,2080
2017-07-21T04:58:35.975Z,2088
2017-07-21T04:59:36.700Z,2100
2017-07-21T05:00:37.455Z,2108
2017-07-21T05:01:38.177Z,2116
2017-07-21T05:02:38.906Z,2128
2017-07-21T05:03:39.630Z,2140
2017-07-21T05:04:40.379Z,2176
2017-07-21T05:05:41.109Z,2192
2017-07-21T05:06:41.834Z,2220
2017-07-21T05:07:42.564Z,2248
2017-07-21T05:08:43.293Z,2272
2017-07-21T05:09:44.014Z,2304
2017-07-21T05:10:44.740Z,2324
2017-07-21T05:11:45.491Z,2348
2017-07-21T05:12:46.213Z,2376
2017-07-21T05:13:46.945Z,2392
2017-07-21T05:14:47.669Z,2396
2017-07-21T05:15:48.397Z,2416
2017-07-21T05:16:49.129Z,2424
2017-07-21T05:17:49.851Z,2444
2017-07-21T05:18:50.579Z,2472
2017-07-21T05:19:51.308Z,2444
2017-07-21T05:20:52.042Z,2428
2017-07-21T05:21:52.788Z,2416
2017-07-21T05:22:53.511Z,2460
2017-07-21T05:23:54.241Z,2512
2017-07-21T05:24:54.968Z,2520
2017-07-21T05:25:55.694Z,2556
2017-07-21T05:26:56.425Z,2584
2017-07-21T05:27:57.151Z,2596
2017-07-21T05:28:57.898Z,2604
2017-07-21T05:29:58.624Z,2624
2017-07-21T05:30:59.350Z,2660
2017-07-21T05:32:00.080Z,2680
2017-07-21T05:33:00.803Z,2688
2017-07-21T05:34:01.530Z,2692
2017-07-21T05:35:02.259Z,2700
2017-07-21T05:36:02.988Z,2696
2017-07-21T05:37:03.738Z,2684
2017-07-21T05:38:04.472Z,2704
2017-07-21T05:39:05.196Z,2740
2017-07-21T05:40:05.919Z,2764
2017-07-21T05:41:06.650Z,2780
2017-07-21T05:42:07.375Z,2788
2017-07-21T05:43:08.104Z,2812
2017-07-21T05:44:08.857Z,2852
2017-07-21T05:45:09.587Z,2872
2017-07-21T05:46:10.317Z,2880
2017-07-21T05:47:11.038Z,2908
2017-07-21T05:48:11.792Z,2928
2017-07-21T05:49:12.524Z,2920
2017-07-21T05:50:13.271Z,2976
2017-07-21T05:51:13.998Z,2984
2017-07-21T05:52:14.729Z,3020
2017-07-21T05:53:15.456Z,3032
2017-07-21T05:54:16.210Z,3072
2017-07-21T05:55:16.934Z,3104
2017-07-21T05:56:17.658Z,3124
2017-07-21T05:57:18.387Z,3132
2017-07-21T05:58:19.116Z,3168
2017-07-21T05:59:19.842Z,3184
2017-07-21T06:00:20.568Z,3208
2017-07-21T06:01:21.315Z,3236
2017-07-21T06:02:22.041Z,3276
2017-07-21T06:03:22.774Z,3312
2017-07-21T06:04:23.503Z,3364
2017-07-21T06:05:24.228Z,3400
2017-07-21T06:06:24.980Z,3472
2017-07-21T06:07:25.729Z,3540
2017-07-21T06:08:26.458Z,3640
2017-07-21T06:09:27.190Z,3724
2017-07-21T06:10:27.917Z,3844
2017-07-21T06:11:28.649Z,3956
2017-07-21T06:12:29.375Z,4064
2017-07-21T06:13:30.126Z,4184
2017-07-21T06:14:30.858Z,4352
2017-07-21T06:15:31.580Z,4644
2017-07-21T06:16:32.308Z,4872
2017-07-21T06:17:33.040Z,4752
2017-07-21T06:18:33.764Z,4248
2017-07-21T06:19:34.514Z,4260
2017-07-21T06:20:35.242Z,4272
2017-07-21T06:21:35.971Z,4316
2017-07-21T06:22:36.702Z,4408
2017-07-21T06:23:37.435Z,4400
2017-07-21T06:24:38.156Z,4392
2017-07-21T06:25:38.887Z,4340
2017-07-21T06:26:39.616Z,4200
2017-07-21T06:27:40.347Z,4192
2017-07-21T06:28:41.074Z,4072
2017-07-21T06:29:41.800Z,4040
2017-07-21T06:30:42.527Z,4044
2017-07-21T06:31:43.259Z,4016
2017-07-21T06:32:44.009Z,4024
2017-07-21T06:33:44.759Z,4000
2017-07-21T06:34:45.493Z,3952
2017-07-21T06:35:46.217Z,3892
2017-07-21T06:36:46.945Z,4044
2017-07-21T06:37:47.677Z,4036
2017-07-21T06:38:48.400Z,4216
2017-07-21T06:39:49.127Z,4264
2017-07-21T06:40:49.860Z,4264
2017-07-21T06:41:50.587Z,4388
2017-07-21T06:42:51.312Z,4356
2017-07-21T06:43:52.064Z,4356
2017-07-21T06:44:52.793Z,4164
2017-07-21T06:45:53.522Z,4428
2017-07-21T06:46:54.272Z,4368
2017-07-21T06:47:55.005Z,4356
2017-07-21T06:48:55.762Z,4376
2017-07-21T06:49:56.515Z,4368
2017-07-21T06:50:57.266Z,4320
2017-07-21T06:51:57.996Z,4288
2017-07-21T06:52:58.745Z,4252
2017-07-21T06:53:59.497Z,4200
2017-07-21T06:55:00.224Z,4124
2017-07-21T06:56:00.954Z,4272
2017-07-21T06:57:01.706Z,4332
2017-07-21T06:58:02.431Z,4364
2017-07-21T06:59:03.160Z,4316
2017-07-21T07:00:03.888Z,4368
2017-07-21T07:01:04.620Z,4444
2017-07-21T07:02:05.348Z,4468
2017-07-21T07:03:06.075Z,4488
2017-07-21T07:04:06.808Z,4504
2017-07-21T07:05:07.529Z,4532
2017-07-21T07:06:08.283Z,4572
2017-07-21T07:07:09.013Z,4552
2017-07-21T07:08:09.742Z,4524
2017-07-21T07:09:10.467Z,4456
2017-07-21T07:10:11.198Z,4412
2017-07-21T07:11:11.955Z,4404
2017-07-21T07:12:12.682Z,4312
2017-07-21T07:13:13.414Z,4276
2017-07-21T07:14:14.139Z,4472
2017-07-21T07:15:14.866Z,4528
2017-07-21T07:16:15.599Z,4512
2017-07-21T07:17:16.328Z,4508
2017-07-21T07:18:17.059Z,4484
2017-07-21T07:19:17.784Z,4456
2017-07-21T07:20:18.514Z,4368
2017-07-21T07:21:19.244Z,4340
2017-07-21T07:22:19.975Z,4344
2017-07-21T07:23:20.701Z,4296
2017-07-21T07:24:21.431Z,4272
2017-07-21T07:25:22.183Z,4300
2017-07-21T07:26:22.911Z,4312
2017-07-21T07:27:23.644Z,4348
2017-07-21T07:28:24.398Z,4376
2017-07-21T07:29:25.149Z,4404
2017-07-21T07:30:25.879Z,4452
2017-07-21T07:31:26.631Z,4516
2017-07-21T07:32:27.360Z,4564
2017-07-21T07:33:28.117Z,4648
2017-07-21T07:34:28.846Z,4744
2017-07-21T07:35:29.601Z,4828
2017-07-21T07:36:30.330Z,4852
2017-07-21T07:37:31.084Z,4920
2017-07-21T07:38:31.817Z,4964
2017-07-21T07:39:32.572Z,4820
2017-07-21T07:40:33.331Z,5044
2017-07-21T07:41:34.063Z,5064
2017-07-21T07:42:34.799Z,5096
2017-07-21T07:43:35.530Z,5168
2017-07-21T07:44:36.267Z,5352
2017-07-21T07:45:37.030Z,5288
2017-07-21T07:46:37.788Z,5460
2017-07-21T07:47:38.521Z,5612
2017-07-21T07:48:39.278Z,5684
2017-07-21T07:49:40.017Z,5780
2017-07-21T07:50:40.753Z,5844
2017-07-21T07:51:41.495Z,5960
2017-07-21T07:52:42.230Z,6044
2017-07-21T07:53:42.965Z,6152
2017-07-21T07:54:43.701Z,6400
2017-07-21T07:55:44.463Z,6652
2017-07-21T07:56:45.228Z,6868
2017-07-21T07:57:45.966Z,7172
2017-07-21T07:58:46.709Z,7552
2017-07-21T07:59:47.449Z,8056
2017-07-21T08:00:48.190Z,9284
2017-07-21T08:02:50.572Z,34464
2017-07-21T08:03:51.336Z,57312
2017-07-21T08:04:52.077Z,67136
2017-07-21T08:05:52.839Z,70656
2017-07-21T08:06:53.602Z,73376
2017-07-21T08:07:54.354Z,78304
2017-07-21T08:08:55.092Z,78752
2017-07-21T08:09:55.833Z,80096
2017-07-21T08:10:56.573Z,78784
2017-07-21T08:11:57.316Z,77024
2017-07-21T08:12:58.057Z,77248
2017-07-21T08:13:58.804Z,75552
2017-07-21T08:14:59.547Z,73792
2017-07-21T08:16:00.288Z,74880
2017-07-21T08:17:01.027Z,75552
2017-07-21T08:18:01.773Z,76384
2017-07-21T08:19:02.538Z,78720
2017-07-21T08:20:03.282Z,76864
2017-07-21T08:21:04.017Z,76064
2017-07-21T08:22:04.759Z,75680
2017-07-21T08:23:05.506Z,75744
2017-07-21T08:24:06.242Z,75648
2017-07-21T08:25:07.005Z,76064
2017-07-21T08:26:07.747Z,77376
2017-07-21T08:27:08.492Z,76160
2017-07-21T08:28:09.236Z,74656
2017-07-21T08:29:09.982Z,78720
2017-07-21T08:30:10.721Z,78112
2017-07-21T08:31:11.459Z,77536
2017-07-21T08:32:12.204Z,79168
2017-07-21T08:33:12.951Z,78528
2017-07-21T08:34:13.691Z,77920
2017-07-21T08:35:14.436Z,77408
2017-07-21T08:36:15.178Z,77120
2017-07-21T08:37:15.921Z,79776
2017-07-21T08:38:16.658Z,77440
2017-07-21T08:39:17.405Z,78400
2017-07-21T08:40:18.151Z,80800
2017-07-21T08:41:18.894Z,81696
2017-07-21T08:42:19.661Z,82784
2017-07-21T08:43:20.399Z,81376
2017-07-21T08:44:21.146Z,85248
2017-07-21T08:45:21.893Z,85472
2017-07-21T08:46:22.658Z,86560
2017-07-21T08:47:23.399Z,86432
2017-07-21T08:48:24.144Z,64640
2017-07-21T08:49:24.885Z,85792
2017-07-21T08:50:25.624Z,87744
2017-07-21T08:51:26.367Z,86816
2017-07-21T08:52:27.115Z,88288
2017-07-21T08:53:27.855Z,88672
2017-07-21T08:54:28.595Z,89824
2017-07-21T08:55:29.340Z,91296
2017-07-21T08:56:30.079Z,90112
2017-07-21T08:57:30.826Z,88096
2017-07-21T08:58:31.592Z,87104
2017-07-21T08:59:32.332Z,85472
2017-07-21T09:00:33.076Z,85792
2017-07-21T09:01:33.820Z,83584
2017-07-21T09:02:34.568Z,87936
2017-07-21T09:03:35.332Z,86368
2017-07-21T09:04:36.079Z,88000
2017-07-21T09:05:36.822Z,86784
2017-07-21T09:06:37.564Z,83360
2017-07-21T09:07:38.313Z,87168
2017-07-21T09:08:39.051Z,92384
2017-07-21T09:09:39.791Z,87936
2017-07-21T09:10:40.541Z,80480
2017-07-21T09:11:41.278Z,85792
2017-07-21T09:12:42.025Z,82464
2017-07-21T09:13:42.790Z,83456
2017-07-21T09:14:43.532Z,83904
2017-07-21T09:15:44.280Z,81920
2017-07-21T09:16:45.026Z,87232
2017-07-21T09:17:45.769Z,90016
2017-07-21T09:18:46.522Z,89312
2017-07-21T09:19:47.281Z,86560
2017-07-21T09:20:48.032Z,88608
2017-07-21T09:21:48.806Z,88800
2017-07-21T09:22:49.557Z,89504
2017-07-21T09:23:50.325Z,90400
2017-07-21T09:24:51.074Z,89856
2017-07-21T09:25:51.827Z,87744
2017-07-21T09:26:52.574Z,86208
2017-07-21T09:27:53.349Z,92192
2017-07-21T09:28:54.101Z,86240
2017-07-21T09:29:54.851Z,84544
2017-07-21T09:30:55.614Z,95072
2017-07-21T09:31:56.365Z,99200
2017-07-21T09:32:57.121Z,97920
2017-07-21T09:33:57.873Z,97856
2017-07-21T09:34:58.633Z,89504
2017-07-21T09:35:59.383Z,105216
2017-07-21T09:37:00.146Z,105440
2017-07-21T09:38:00.903Z,95616
2017-07-21T09:39:01.647Z,92576
2017-07-21T09:40:02.396Z,94880
2017-07-21T09:41:03.148Z,91232
2017-07-21T09:42:03.894Z,97824
2017-07-21T09:43:04.647Z,100960
2017-07-21T09:44:05.402Z,95104
2017-07-21T09:45:06.158Z,98720
2017-07-21T09:46:06.909Z,98784
2017-07-21T09:47:07.662Z,92960
2017-07-21T09:48:08.416Z,98048
2017-07-21T09:49:09.166Z,98304
2017-07-21T09:50:09.938Z,93792
2017-07-21T09:51:10.690Z,98752
2017-07-21T09:52:11.468Z,97184
2017-07-21T09:53:12.250Z,95072
2017-07-21T09:54:13.001Z,95552
2017-07-21T09:55:13.756Z,101824
2017-07-21T09:56:14.506Z,101216
2017-07-21T09:57:15.264Z,104416
2017-07-21T09:58:16.019Z,101536
2017-07-21T09:59:16.771Z,104160
2017-07-21T10:00:17.527Z,111776
2017-07-21T10:01:18.278Z,109248
2017-07-21T10:02:19.055Z,106560
2017-07-21T10:03:19.833Z,107296
2017-07-21T10:04:20.588Z,110336
2017-07-21T10:05:21.342Z,110752
2017-07-21T10:06:22.098Z,92672
2017-07-21T10:07:22.876Z,104128
2017-07-21T10:08:23.630Z,114368
2017-07-21T10:09:24.383Z,103264
2017-07-21T10:10:25.134Z,99104
2017-07-21T10:11:25.884Z,97888
2017-07-21T10:12:26.636Z,98560
2017-07-21T10:13:27.397Z,100192
2017-07-21T10:14:28.170Z,98944
2017-07-21T10:15:28.920Z,99648
2017-07-21T10:16:29.675Z,100064
2017-07-21T10:17:30.424Z,98912
2017-07-21T10:18:31.179Z,97312
2017-07-21T10:19:31.929Z,100224
2017-07-21T10:20:32.678Z,99712
2017-07-21T10:21:33.431Z,96704
2017-07-21T10:22:34.209Z,87168
2017-07-21T10:23:34.958Z,89056
2017-07-21T10:24:35.709Z,86080
2017-07-21T10:25:36.464Z,86976
2017-07-21T10:26:37.215Z,85184
2017-07-21T10:27:37.986Z,75200
2017-07-21T10:28:38.740Z,83712
2017-07-21T10:29:39.515Z,26336
2017-07-21T10:30:40.289Z,32480
2017-07-21T10:31:41.012Z,90752
2017-07-21T10:32:41.762Z,102016
2017-07-21T10:33:42.518Z,95776
2017-07-21T10:34:43.271Z,100640
2017-07-21T10:35:44.020Z,110336
2017-07-21T10:36:44.791Z,108896
2017-07-21T10:37:45.545Z,105760
2017-07-21T10:38:46.297Z,109696
2017-07-21T10:39:47.070Z,105472
2017-07-21T10:40:47.840Z,104064
2017-07-21T10:41:48.594Z,105728
2017-07-21T10:42:49.344Z,105568
2017-07-21T10:43:50.090Z,105888
2017-07-21T10:44:50.841Z,108192
2017-07-21T10:45:51.595Z,103200
2017-07-21T10:46:52.373Z,105856
2017-07-21T10:47:53.130Z,103264
2017-07-21T10:48:53.903Z,101024
2017-07-21T10:49:54.680Z,104160
2017-07-21T10:50:55.450Z,105728
2017-07-21T10:51:56.204Z,105152
2017-07-21T10:52:56.954Z,103552
2017-07-21T10:53:57.700Z,104928
2017-07-21T10:54:58.476Z,105760
2017-07-21T10:55:59.251Z,104896
2017-07-21T10:57:00.014Z,102560
2017-07-21T10:58:00.751Z,99616
2017-07-21T10:59:01.524Z,101824
2017-07-21T11:00:02.304Z,100160
2017-07-21T11:01:03.047Z,90112
2017-07-21T11:02:03.793Z,90208
2017-07-21T11:03:04.542Z,97216
2017-07-21T11:04:05.295Z,86720
2017-07-21T11:05:06.043Z,93824
2017-07-21T11:06:06.793Z,100416
2017-07-21T11:07:07.562Z,95264
2017-07-21T11:08:08.337Z,97888
2017-07-21T11:09:09.085Z,97984
2017-07-21T11:10:09.836Z,98784
2017-07-21T11:11:10.586Z,100992
2017-07-21T11:12:11.338Z,104672
2017-07-21T11:13:12.091Z,102336
2017-07-21T11:14:12.843Z,99776
2017-07-21T11:15:13.592Z,104800
2017-07-21T11:16:14.346Z,100320
2017-07-21T11:17:15.091Z,99392
2017-07-21T11:18:15.844Z,103616
2017-07-21T11:19:16.595Z,103424
2017-07-21T11:20:17.368Z,101440
2017-07-21T11:21:18.117Z,99520
2017-07-21T11:22:18.866Z,98752
2017-07-21T11:23:19.618Z,100544
2017-07-21T11:24:20.397Z,101120
2017-07-21T11:25:21.143Z,98752
2017-07-21T11:26:21.889Z,99200
2017-07-21T11:27:22.641Z,103328
2017-07-21T11:28:23.391Z,102464
2017-07-21T11:29:24.165Z,100928
2017-07-21T11:30:24.910Z,102240
2017-07-21T11:31:25.656Z,101920
2017-07-21T11:32:26.406Z,101920
2017-07-21T11:33:27.157Z,98656
2017-07-21T11:34:27.902Z,95680
2017-07-21T11:35:28.676Z,93504
2017-07-21T11:36:29.425Z,93664
2017-07-21T11:37:30.177Z,96128
2017-07-21T11:38:30.918Z,98080
2017-07-21T11:39:31.671Z,98176
2017-07-21T11:40:32.419Z,95168
2017-07-21T11:41:33.169Z,94208
2017-07-21T11:42:33.916Z,93696
2017-07-21T11:43:34.664Z,98528
2017-07-21T11:44:35.417Z,98496
2017-07-21T11:45:36.165Z,96352
2017-07-21T11:46:36.910Z,94432
2017-07-21T11:47:37.665Z,93632
2017-07-21T11:48:38.415Z,93440
2017-07-21T11:49:39.161Z,96128
2017-07-21T11:50:39.917Z,93248
2017-07-21T11:51:40.660Z,95008
2017-07-21T11:52:41.428Z,95264
2017-07-21T11:53:42.174Z,96096
2017-07-21T11:54:42.925Z,93984
2017-07-21T11:55:43.670Z,91360
2017-07-21T11:56:44.423Z,91072
2017-07-21T11:57:45.166Z,94848
2017-07-21T11:58:45.915Z,90624
2017-07-21T11:59:46.658Z,94112
2017-07-21T12:00:47.407Z,93824
2017-07-21T12:01:48.154Z,86848
2017-07-21T12:02:48.900Z,86848
2017-07-21T12:03:49.646Z,91392
2017-07-21T12:04:50.416Z,90464
2017-07-21T12:05:51.188Z,88256
2017-07-21T12:06:51.955Z,89824
2017-07-21T12:07:52.699Z,94368
2017-07-21T12:08:53.448Z,95424
2017-07-21T12:09:54.198Z,94112
2017-07-21T12:10:54.948Z,95008
2017-07-21T12:11:55.693Z,94976
2017-07-21T12:12:56.439Z,91904
2017-07-21T12:13:57.188Z,95712
2017-07-21T12:14:57.935Z,91648
2017-07-21T12:15:58.682Z,86944
2017-07-21T12:16:59.430Z,88128
2017-07-21T12:18:00.181Z,93632
2017-07-21T12:19:00.932Z,90656
2017-07-21T12:20:01.705Z,89568
2017-07-21T12:21:02.456Z,91904
2017-07-21T12:22:03.207Z,91040
2017-07-21T12:23:03.959Z,93344
2017-07-21T12:24:04.705Z,90688
2017-07-21T12:25:05.455Z,89760
2017-07-21T12:26:06.209Z,90560
2017-07-21T12:27:06.957Z,92576
2017-07-21T12:28:07.706Z,90496
2017-07-21T12:29:08.480Z,91520
2017-07-21T12:30:09.231Z,91936
2017-07-21T12:31:09.977Z,90176
2017-07-21T12:32:10.729Z,86880
2017-07-21T12:33:11.474Z,88704
2017-07-21T12:34:12.229Z,90240
2017-07-21T12:35:12.998Z,88960
2017-07-21T12:36:13.752Z,89728
2017-07-21T12:37:14.502Z,86432
2017-07-21T12:38:15.253Z,86688
2017-07-21T12:39:16.005Z,86560
2017-07-21T12:40:16.753Z,86656
2017-07-21T12:41:17.500Z,85120
2017-07-21T12:42:18.256Z,92000
2017-07-21T12:43:19.027Z,90368
2017-07-21T12:44:19.772Z,91968
2017-07-21T12:45:20.522Z,93920
2017-07-21T12:46:21.276Z,90560
2017-07-21T12:47:22.024Z,92864
2017-07-21T12:48:22.796Z,89920
2017-07-21T12:49:23.546Z,88512
2017-07-21T12:50:24.289Z,89344
2017-07-21T12:51:25.061Z,86720
2017-07-21T12:52:25.809Z,86496
2017-07-21T12:53:26.560Z,90272
2017-07-21T12:54:27.334Z,90464
2017-07-21T12:55:28.078Z,88064
2017-07-21T12:56:28.833Z,93440
2017-07-21T12:57:29.573Z,95552
2017-07-21T12:58:30.316Z,93120
2017-07-21T12:59:31.068Z,92992
2017-07-21T13:00:31.818Z,97312
2017-07-21T13:01:32.565Z,94304
2017-07-21T13:02:33.308Z,92704
2017-07-21T13:03:34.061Z,97216
2017-07-21T13:04:34.808Z,108608
2017-07-21T13:05:35.568Z,97504
2017-07-21T13:06:36.314Z,85056
2017-07-21T13:07:37.070Z,100576
2017-07-21T13:08:37.821Z,93280
2017-07-21T13:09:38.570Z,82016
2017-07-21T13:10:39.344Z,83264
2017-07-21T13:11:40.091Z,86976
2017-07-21T13:12:40.836Z,87840
2017-07-21T13:13:41.610Z,89600
2017-07-21T13:14:42.366Z,89600
2017-07-21T13:15:43.120Z,88512
2017-07-21T13:16:43.868Z,85920
2017-07-21T13:17:44.614Z,86176
2017-07-21T13:18:45.356Z,88064
2017-07-21T13:19:46.108Z,87584
2017-07-21T13:20:46.879Z,84544
2017-07-21T13:21:47.626Z,86720
2017-07-21T13:22:48.395Z,86496
2017-07-21T13:23:49.147Z,84480
2017-07-21T13:24:49.914Z,86080
2017-07-21T13:25:50.666Z,85152
2017-07-21T13:26:51.416Z,84672
2017-07-21T13:27:52.189Z,85088
2017-07-21T13:28:52.941Z,82368
2017-07-21T13:29:53.690Z,80032
2017-07-21T13:30:54.436Z,82592
2017-07-21T13:31:55.205Z,80960
2017-07-21T13:32:55.948Z,81664
2017-07-21T13:33:56.697Z,78784
2017-07-21T13:34:57.444Z,80480
2017-07-21T13:35:58.194Z,83936
2017-07-21T13:36:58.941Z,78976
2017-07-21T13:37:59.690Z,80704
2017-07-21T13:39:00.438Z,82720
2017-07-21T13:40:01.193Z,79648
2017-07-21T13:41:01.969Z,79040
2017-07-21T13:42:02.714Z,78656
2017-07-21T13:43:03.467Z,80640
2017-07-21T13:44:04.210Z,79168